Time;durP1;ratioP1;P1;durP2;ratioP2;P2;SDS_P1;SDS_P2;PMS_P1;PMS_P2;Temp;Humidity;BMP_temperature;BMP_pressure;BME280_temperature;BME280_humidity;BME280_pressure;Samples;Min_cycle;Max_cycle;Signal;HPM_P1;HPM_P2
2023/12/01 00:01:30;;;;;;;76.63;32.13;;;;;;;;;;5047627;28;20401;-60
2023/12/01 00:03:56;;;;;;;85.00;34.47;;;;;;;;;;5049388;28;20400;-60
2023/12/01 00:06:21;;;;;;;74.47;31.90;;;;;;;;;;5048409;28;20386;-60
2023/12/01 00:08:46;;;;;;;80.27;33.50;;;;;;;;;;5048693;28;20872;-60
2023/12/01 00:11:11;;;;;;;71.77;32.13;;;;;;;;;;5048520;28;20394;-60
2023/12/01 00:13:37;;;;;;;76.57;32.73;;;;;;;;;;5049742;28;20400;-60
2023/12/01 00:16:02;;;;;;;68.57;30.93;;;;;;;;;;5029177;28;21071;-61
2023/12/01 00:18:27;;;;;;;85.13;34.80;;;;;;;;;;5050080;28;20413;-60
2023/12/01 00:20:53;;;;;;;91.33;33.20;;;;;;;;;;5049820;28;20432;-60
2023/12/01 00:23:19;;;;;;;97.83;35.23;;;;;;;;;;5046594;28;20908;-59
2023/12/01 00:25:44;;;;;;;89.25;33.88;;;;;;;;;;5049277;28;20474;-60
2023/12/01 00:28:10;;;;;;;80.63;33.20;;;;;;;;;;5049374;28;20421;-60
2023/12/01 00:30:35;;;;;;;95.23;35.27;;;;;;;;;;5047594;28;20412;-59
2023/12/01 00:33:00;;;;;;;76.10;32.67;;;;;;;;;;5048223;28;20405;-64
2023/12/01 00:35:26;;;;;;;81.90;33.53;;;;;;;;;;5049817;28;20512;-60
2023/12/01 00:37:51;;;;;;;86.87;34.00;;;;;;;;;;5048326;28;20413;-60
2023/12/01 00:40:16;;;;;;;91.67;33.00;;;;;;;;;;5046957;28;20397;-60
2023/12/01 00:42:42;;;;;;;88.40;33.27;;;;;;;;;;5049321;28;20982;-60
2023/12/01 00:45:08;;;;;;;77.60;32.35;;;;;;;;;;5048134;28;20480;-60
2023/12/01 00:47:33;;;;;;;99.97;34.57;;;;;;;;;;5046921;28;20536;-59
2023/12/01 00:49:59;;;;;;;93.93;34.37;;;;;;;;;;5049349;28;20939;-59
2023/12/01 00:52:24;;;;;;;88.73;35.33;;;;;;;;;;5048138;28;20389;-60
2023/12/01 00:54:50;;;;;;;84.33;34.27;;;;;;;;;;5047409;28;20401;-59
2023/12/01 00:57:16;;;;;;;91.87;34.07;;;;;;;;;;5047693;28;20424;-60
2023/12/01 00:59:41;;;;;;;109.97;36.58;;;;;;;;;;5048578;28;20400;-60
2023/12/01 01:02:08;;;;;;;97.00;35.80;;;;;;;;;;5047681;28;20416;-60
2023/12/01 01:04:33;;;;;;;92.63;35.83;;;;;;;;;;5047766;28;20448;-59
2023/12/01 01:06:58;;;;;;;105.33;36.10;;;;;;;;;;5048114;28;20491;-59
2023/12/01 01:09:24;;;;;;;104.10;35.13;;;;;;;;;;5048444;28;20398;-60
2023/12/01 01:11:50;;;;;;;88.15;36.63;;;;;;;;;;5045757;28;20412;-60
2023/12/01 01:14:15;;;;;;;88.70;35.20;;;;;;;;;;5047734;28;20757;-60
2023/12/01 01:16:40;;;;;;;108.37;37.93;;;;;;;;;;5049003;28;20404;-60
2023/12/01 01:19:06;;;;;;;108.73;37.50;;;;;;;;;;5046247;28;20500;-60
2023/12/01 01:21:31;;;;;;;85.47;35.30;;;;;;;;;;5047569;28;20892;-60
2023/12/01 01:23:56;;;;;;;102.77;37.47;;;;;;;;;;5048963;28;20417;-60
2023/12/01 01:26:21;;;;;;;107.93;38.53;;;;;;;;;;5045544;28;20396;-60
2023/12/01 01:28:47;;;;;;;94.90;36.23;;;;;;;;;;5047529;28;20492;-60
2023/12/01 01:31:12;;;;;;;88.43;36.53;;;;;;;;;;5047970;28;20445;-60
2023/12/01 01:33:37;;;;;;;89.93;34.87;;;;;;;;;;5047423;28;21244;-60
2023/12/01 01:36:03;;;;;;;87.97;34.00;;;;;;;;;;5046300;28;20421;-60
2023/12/01 01:38:29;;;;;;;84.37;32.77;;;;;;;;;;5048471;28;20420;-60
2023/12/01 01:40:54;;;;;;;89.68;35.80;;;;;;;;;;5047241;28;20417;-60
2023/12/01 01:43:21;;;;;;;83.23;35.87;;;;;;;;;;5045066;28;20389;-60
2023/12/01 01:45:48;;;;;;;83.53;34.20;;;;;;;;;;5048388;28;20527;-59
2023/12/01 01:48:13;;;;;;;78.25;33.08;;;;;;;;;;5029676;28;20518;-60
2023/12/01 01:50:38;;;;;;;65.70;31.07;;;;;;;;;;5029516;28;20835;-60
2023/12/01 01:53:04;;;;;;;80.57;34.53;;;;;;;;;;5047283;28;20405;-60
2023/12/01 01:55:29;;;;;;;73.23;33.23;;;;;;;;;;5047030;28;20409;-60
2023/12/01 01:57:56;;;;;;;73.43;32.57;;;;;;;;;;5046877;28;20902;-60
2023/12/01 02:00:21;;;;;;;68.25;31.95;;;;;;;;;;5028779;28;20402;-60
2023/12/01 02:02:47;;;;;;;60.93;31.00;;;;;;;;;;5047299;28;20409;-60
2023/12/01 02:05:13;;;;;;;67.18;32.58;;;;;;;;;;5047377;28;20425;-60
2023/12/01 02:07:39;;;;;;;62.00;30.13;;;;;;;;;;5045573;28;20402;-60
2023/12/01 02:10:04;;;;;;;64.90;31.13;;;;;;;;;;5046462;28;20402;-60
2023/12/01 02:12:29;;;;;;;64.27;31.43;;;;;;;;;;5047572;28;20396;-60
2023/12/01 02:14:55;;;;;;;59.70;30.40;;;;;;;;;;5045756;28;20903;-59
2023/12/01 02:17:20;;;;;;;57.23;29.73;;;;;;;;;;5046026;28;20443;-60
2023/12/01 02:19:45;;;;;;;63.80;29.47;;;;;;;;;;5047893;28;20401;-60
2023/12/01 02:22:11;;;;;;;64.13;30.03;;;;;;;;;;5045547;28;20870;-59
2023/12/01 02:24:36;;;;;;;54.30;28.60;;;;;;;;;;5044807;28;20405;-60
2023/12/01 02:27:01;;;;;;;57.53;30.08;;;;;;;;;;5048810;28;20502;-60
2023/12/01 02:29:26;;;;;;;61.43;30.17;;;;;;;;;;5049318;28;20405;-60
2023/12/01 02:31:52;;;;;;;61.73;31.00;;;;;;;;;;5045392;28;20405;-60
2023/12/01 02:34:21;;;;;;;60.30;30.10;;;;;;;;;;5046468;28;20401;-60
2023/12/01 02:36:46;;;;;;;54.45;28.55;;;;;;;;;;5046642;28;20397;-60
2023/12/01 02:39:13;;;;;;;53.92;28.55;;;;;;;;;;5045891;28;20413;-59
2023/12/01 02:41:39;;;;;;;52.30;26.85;;;;;;;;;;5045727;28;20401;-60
2023/12/01 02:44:04;;;;;;;54.13;27.40;;;;;;;;;;5006453;28;20433;-60
2023/12/01 02:46:29;;;;;;;54.50;28.30;;;;;;;;;;5027469;28;20442;-60
2023/12/01 02:48:54;;;;;;;51.47;28.00;;;;;;;;;;5028128;28;20482;-60
2023/12/01 02:51:20;;;;;;;53.90;27.47;;;;;;;;;;5018154;28;20965;-60
2023/12/01 02:53:45;;;;;;;58.23;29.77;;;;;;;;;;5016744;28;20802;-60
2023/12/01 02:56:11;;;;;;;51.73;28.77;;;;;;;;;;5018495;28;20415;-60
2023/12/01 02:58:36;;;;;;;53.50;29.07;;;;;;;;;;5021454;28;20402;-60
2023/12/01 03:01:03;;;;;;;53.13;28.63;;;;;;;;;;5023858;28;20470;-60
2023/12/01 03:03:28;;;;;;;52.08;27.65;;;;;;;;;;5025517;28;20948;-60
2023/12/01 03:05:53;;;;;;;49.97;27.83;;;;;;;;;;5025303;28;20556;-60
2023/12/01 03:08:19;;;;;;;50.35;27.00;;;;;;;;;;5023630;28;20487;-60
2023/12/01 03:10:44;;;;;;;50.97;27.20;;;;;;;;;;5025144;28;20956;-59
2023/12/01 03:13:09;;;;;;;53.57;27.50;;;;;;;;;;5021509;28;20415;-60
2023/12/01 03:15:34;;;;;;;51.17;26.97;;;;;;;;;;5017003;28;20484;-60
2023/12/01 03:18:00;;;;;;;52.47;26.40;;;;;;;;;;5016346;28;20426;-60
2023/12/01 03:20:27;;;;;;;51.33;26.80;;;;;;;;;;5020950;28;20465;-60
2023/12/01 03:22:53;;;;;;;48.50;26.45;;;;;;;;;;5024075;28;20448;-60
2023/12/01 03:25:18;;;;;;;49.30;26.58;;;;;;;;;;5024684;28;20543;-60
2023/12/01 03:27:44;;;;;;;46.97;26.03;;;;;;;;;;5025728;28;20414;-60
2023/12/01 03:30:13;;;;;;;47.83;25.85;;;;;;;;;;5024031;28;20770;-60
2023/12/01 03:32:45;;;;;;;47.63;26.15;;;;;;;;;;5023800;28;20405;-60
2023/12/01 03:35:12;;;;;;;47.35;25.58;;;;;;;;;;5024284;28;20461;-60
2023/12/01 03:37:37;;;;;;;44.58;24.52;;;;;;;;;;5023994;28;20478;-60
2023/12/01 03:40:03;;;;;;;51.53;27.10;;;;;;;;;;5019511;28;20405;-60
2023/12/01 03:42:28;;;;;;;47.05;24.98;;;;;;;;;;5020722;28;20486;-60
2023/12/01 03:44:54;;;;;;;48.23;26.20;;;;;;;;;;5030195;28;20401;-60
2023/12/01 03:47:19;;;;;;;49.93;26.23;;;;;;;;;;5027529;28;20514;-60
2023/12/01 03:49:44;;;;;;;47.73;25.10;;;;;;;;;;5028116;28;20456;-60
2023/12/01 03:52:09;;;;;;;45.10;24.50;;;;;;;;;;5029421;28;20881;-60
2023/12/01 03:54:35;;;;;;;46.10;24.37;;;;;;;;;;5027878;28;20853;-60
2023/12/01 03:57:00;;;;;;;47.20;25.97;;;;;;;;;;5026413;28;20405;-59
2023/12/01 03:59:25;;;;;;;45.37;24.23;;;;;;;;;;5017362;28;20478;-60
2023/12/01 04:01:51;;;;;;;43.23;23.43;;;;;;;;;;5015435;28;20913;-59
2023/12/01 04:04:16;;;;;;;48.10;25.57;;;;;;;;;;5034437;28;20438;-60
2023/12/01 04:06:42;;;;;;;46.33;25.33;;;;;;;;;;5041096;28;20412;-60
2023/12/01 04:09:09;;;;;;;49.90;25.38;;;;;;;;;;5048103;28;20401;-60
2023/12/01 04:11:37;;;;;;;46.15;25.77;;;;;;;;;;5050875;28;21309;-60
2023/12/01 04:14:04;;;;;;;47.92;26.00;;;;;;;;;;5052563;28;20460;-60
2023/12/01 04:16:29;;;;;;;47.97;26.08;;;;;;;;;;5051851;28;20812;-60
2023/12/01 04:18:55;;;;;;;49.85;26.88;;;;;;;;;;5052772;28;20952;-60
2023/12/01 04:21:20;;;;;;;49.73;27.00;;;;;;;;;;5052214;28;20404;-59
2023/12/01 04:23:46;;;;;;;49.78;26.75;;;;;;;;;;5052088;28;20806;-60
2023/12/01 04:26:12;;;;;;;48.57;26.37;;;;;;;;;;5044584;28;20422;-60
2023/12/01 04:28:37;;;;;;;50.20;27.35;;;;;;;;;;5026699;28;21149;-60
2023/12/01 04:31:05;;;;;;;51.90;27.90;;;;;;;;;;5021446;28;20929;-61
2023/12/01 04:33:30;;;;;;;47.67;26.13;;;;;;;;;;5022752;28;20407;-59
2023/12/01 04:35:55;;;;;;;48.47;26.27;;;;;;;;;;5034071;28;20443;-60
2023/12/01 04:38:21;;;;;;;49.37;25.73;;;;;;;;;;5040664;28;20389;-60
2023/12/01 04:40:46;;;;;;;51.20;27.33;;;;;;;;;;5021828;28;20823;-60
2023/12/01 04:43:11;;;;;;;45.80;25.27;;;;;;;;;;5015135;28;20827;-60
2023/12/01 04:45:37;;;;;;;53.53;28.40;;;;;;;;;;5033825;28;20396;-60
2023/12/01 04:48:02;;;;;;;51.57;28.37;;;;;;;;;;5040675;28;20899;-60
2023/12/01 04:50:30;;;;;;;54.37;29.67;;;;;;;;;;5039175;28;20396;-60
2023/12/01 04:52:56;;;;;;;52.92;28.80;;;;;;;;;;5041897;28;20401;-60
2023/12/01 04:55:23;;;;;;;54.00;28.87;;;;;;;;;;5041463;28;20416;-60
2023/12/01 04:57:48;;;;;;;50.88;27.90;;;;;;;;;;5040945;28;20410;-60
2023/12/01 05:00:20;;;;;;;54.50;29.60;;;;;;;;;;5040507;28;20401;-60
2023/12/01 05:02:46;;;;;;;53.70;29.75;;;;;;;;;;5036003;28;20536;-60
2023/12/01 05:05:11;;;;;;;53.22;29.73;;;;;;;;;;5032165;28;20417;-60
2023/12/01 05:07:37;;;;;;;55.13;29.53;;;;;;;;;;5034003;28;20496;-60
2023/12/01 05:10:08;;;;;;;53.33;29.27;;;;;;;;;;5035330;28;20422;-60
2023/12/01 05:12:33;;;;;;;56.08;29.65;;;;;;;;;;5041309;28;20505;-60
2023/12/01 05:14:59;;;;;;;51.97;28.02;;;;;;;;;;5041635;28;20707;-60
2023/12/01 05:17:24;;;;;;;52.93;27.70;;;;;;;;;;5022271;28;20771;-60
2023/12/01 05:19:49;;;;;;;52.90;29.33;;;;;;;;;;5021512;28;20400;-60
2023/12/01 05:22:14;;;;;;;54.38;29.58;;;;;;;;;;5025953;28;20778;-60
2023/12/01 05:24:40;;;;;;;54.23;28.73;;;;;;;;;;5021998;28;20411;-60
2023/12/01 05:27:08;;;;;;;58.20;30.60;;;;;;;;;;5025388;28;21447;-60
2023/12/01 05:29:35;;;;;;;54.33;29.75;;;;;;;;;;5047070;28;20419;-60
2023/12/01 05:32:01;;;;;;;58.53;29.60;;;;;;;;;;5047920;28;20895;-61
2023/12/01 05:34:26;;;;;;;51.23;27.63;;;;;;;;;;5046841;28;20408;-60
2023/12/01 05:36:51;;;;;;;51.53;28.27;;;;;;;;;;5049140;28;20405;-60
2023/12/01 05:39:17;;;;;;;51.17;27.77;;;;;;;;;;5051085;28;20469;-59
2023/12/01 05:41:43;;;;;;;50.23;27.23;;;;;;;;;;5050409;28;20819;-60
2023/12/01 05:44:08;;;;;;;44.35;23.98;;;;;;;;;;5050648;28;20950;-60
2023/12/01 05:46:33;;;;;;;44.23;23.83;;;;;;;;;;5050263;28;20398;-60
2023/12/01 05:49:02;;;;;;;40.10;21.33;;;;;;;;;;5051017;28;20404;-60
2023/12/01 05:51:27;;;;;;;28.45;16.55;;;;;;;;;;5040088;28;20391;-60
2023/12/01 05:53:53;;;;;;;35.07;18.40;;;;;;;;;;5018811;28;21062;-59
2023/12/01 05:56:18;;;;;;;32.95;18.05;;;;;;;;;;5013711;28;20399;-60
2023/12/01 05:58:44;;;;;;;31.30;18.07;;;;;;;;;;5020177;28;20833;-60
2023/12/01 06:01:09;;;;;;;33.10;17.10;;;;;;;;;;5020189;28;20423;-60
2023/12/01 06:03:36;;;;;;;30.00;16.27;;;;;;;;;;5040214;28;20450;-60
2023/12/01 06:06:01;;;;;;;31.33;17.07;;;;;;;;;;5040477;28;20409;-60
2023/12/01 06:08:26;;;;;;;29.20;16.13;;;;;;;;;;5027263;28;20406;-60
2023/12/01 06:10:52;;;;;;;29.70;15.60;;;;;;;;;;5021160;28;20476;-60
2023/12/01 06:13:17;;;;;;;29.63;16.33;;;;;;;;;;5015223;28;20763;-60
2023/12/01 06:15:42;;;;;;;32.07;17.10;;;;;;;;;;5012626;28;20743;-60
2023/12/01 06:18:08;;;;;;;28.27;15.17;;;;;;;;;;5025294;28;20407;-60
2023/12/01 06:20:34;;;;;;;29.33;15.43;;;;;;;;;;5019728;28;20443;-59
2023/12/01 06:23:00;;;;;;;29.57;16.13;;;;;;;;;;5026614;28;20418;-59
2023/12/01 06:25:27;;;;;;;26.50;14.17;;;;;;;;;;5031433;28;20393;-60
2023/12/01 06:27:53;;;;;;;26.05;14.50;;;;;;;;;;5022340;28;20478;-59
2023/12/01 06:30:18;;;;;;;27.38;15.18;;;;;;;;;;5019486;28;20519;-60
2023/12/01 06:32:44;;;;;;;27.40;14.93;;;;;;;;;;5020461;28;20739;-60
2023/12/01 06:35:10;;;;;;;28.02;14.93;;;;;;;;;;5035884;28;20945;-59
2023/12/01 06:37:36;;;;;;;27.83;15.13;;;;;;;;;;5032108;28;20847;-60
2023/12/01 06:40:03;;;;;;;27.33;15.17;;;;;;;;;;5033485;28;20394;-60
2023/12/01 06:42:28;;;;;;;29.45;15.15;;;;;;;;;;5035361;28;20401;-60
2023/12/01 06:44:53;;;;;;;29.40;15.00;;;;;;;;;;5025488;28;20403;-60
2023/12/01 06:47:19;;;;;;;26.65;14.55;;;;;;;;;;5020121;28;20474;-59
2023/12/01 06:49:44;;;;;;;27.20;15.27;;;;;;;;;;5020067;28;20406;-59
2023/12/01 06:52:09;;;;;;;27.73;14.07;;;;;;;;;;5034986;28;20401;-60
2023/12/01 06:54:35;;;;;;;26.03;14.87;;;;;;;;;;5040528;28;20405;-59
2023/12/01 06:57:00;;;;;;;25.80;14.48;;;;;;;;;;5038075;28;20402;-61
2023/12/01 06:59:25;;;;;;;26.93;14.40;;;;;;;;;;5013713;28;20891;-59
2023/12/01 07:01:52;;;;;;;24.60;14.00;;;;;;;;;;5016121;28;20401;-59
2023/12/01 07:04:19;;;;;;;28.90;14.70;;;;;;;;;;5031193;28;20390;-60
2023/12/01 07:06:46;;;;;;;28.42;15.38;;;;;;;;;;5039890;28;20401;-60
2023/12/01 07:09:17;;;;;;;25.80;14.63;;;;;;;;;;5039173;28;20404;-60
2023/12/01 07:11:42;;;;;;;26.50;14.27;;;;;;;;;;5039028;28;20404;-60
2023/12/01 07:14:07;;;;;;;26.77;13.93;;;;;;;;;;5039211;28;20397;-60
2023/12/01 07:16:33;;;;;;;29.30;15.50;;;;;;;;;;5031802;28;20473;-60
2023/12/01 07:18:58;;;;;;;26.17;13.87;;;;;;;;;;5025604;28;20758;-59
2023/12/01 07:21:23;;;;;;;27.73;14.40;;;;;;;;;;5017371;28;20413;-60
2023/12/01 07:23:49;;;;;;;27.93;14.40;;;;;;;;;;5031333;28;20496;-60
2023/12/01 07:26:14;;;;;;;28.27;14.50;;;;;;;;;;5022994;28;20405;-60
2023/12/01 07:28:39;;;;;;;25.67;13.45;;;;;;;;;;5027234;28;20921;-59
2023/12/01 07:31:05;;;;;;;25.63;14.03;;;;;;;;;;5042399;28;21005;-60
2023/12/01 07:33:30;;;;;;;26.43;13.50;;;;;;;;;;5031231;28;20483;-60
2023/12/01 07:35:57;;;;;;;24.52;13.18;;;;;;;;;;5029619;28;20407;-60
2023/12/01 07:38:22;;;;;;;25.03;13.57;;;;;;;;;;5027307;28;20480;-59
2023/12/01 07:40:48;;;;;;;25.10;13.40;;;;;;;;;;5029769;28;20449;-60
2023/12/01 07:43:13;;;;;;;24.47;13.03;;;;;;;;;;5051069;28;20418;-60
2023/12/01 07:45:38;;;;;;;27.00;16.33;;;;;;;;;;5063365;28;21027;-59
2023/12/01 07:48:04;;;;;;;23.97;12.63;;;;;;;;;;5062208;28;20399;-61
2023/12/01 07:50:29;;;;;;;25.60;13.87;;;;;;;;;;5057806;28;20396;-60
2023/12/01 07:52:54;;;;;;;22.77;11.90;;;;;;;;;;5063072;28;21307;-59
2023/12/01 07:55:20;;;;;;;23.30;11.63;;;;;;;;;;5057509;28;20392;-60
2023/12/01 07:57:46;;;;;;;25.60;13.27;;;;;;;;;;5056774;28;20412;-60
2023/12/01 08:00:14;;;;;;;30.30;16.35;;;;;;;;;;5052015;28;20423;-61
2023/12/01 08:02:40;;;;;;;22.88;13.10;;;;;;;;;;5053366;28;21587;-60
2023/12/01 08:05:13;;;;;;;26.02;13.82;;;;;;;;;;5055060;28;21001;-61
2023/12/01 08:07:39;;;;;;;25.98;14.13;;;;;;;;;;5054346;28;20813;-60
2023/12/01 08:10:05;;;;;;;35.17;18.63;;;;;;;;;;5053399;28;20487;-61
2023/12/01 08:12:31;;;;;;;28.70;15.25;;;;;;;;;;5054412;28;20872;-60
2023/12/01 08:14:56;;;;;;;25.70;13.37;;;;;;;;;;5056367;28;20410;-60
2023/12/01 08:17:21;;;;;;;26.13;13.00;;;;;;;;;;5053510;28;20395;-61
2023/12/01 08:19:46;;;;;;;25.57;13.70;;;;;;;;;;5053161;28;20908;-60
2023/12/01 08:22:12;;;;;;;27.03;14.27;;;;;;;;;;5056718;28;20456;-60
2023/12/01 08:24:38;;;;;;;25.50;13.63;;;;;;;;;;5056953;28;20609;-60
2023/12/01 08:27:04;;;;;;;26.92;13.73;;;;;;;;;;5053249;28;20400;-60
2023/12/01 08:29:29;;;;;;;25.80;12.75;;;;;;;;;;5036322;28;20414;-61
2023/12/01 08:31:55;;;;;;;26.20;13.00;;;;;;;;;;5038496;28;20491;-60
2023/12/01 08:34:20;;;;;;;25.07;13.10;;;;;;;;;;5037336;28;20378;-61
2023/12/01 08:36:45;;;;;;;30.17;18.17;;;;;;;;;;5040539;28;20400;-60
2023/12/01 08:39:12;;;;;;;97.77;49.90;;;;;;;;;;5044331;28;20406;-61
2023/12/01 08:41:37;;;;;;;37.20;18.08;;;;;;;;;;5043504;28;20758;-60
2023/12/01 08:44:03;;;;;;;83.97;44.10;;;;;;;;;;5040450;28;20416;-61
2023/12/01 08:46:28;;;;;;;25.97;13.83;;;;;;;;;;5051531;28;20400;-60
2023/12/01 08:48:54;;;;;;;24.13;12.03;;;;;;;;;;5052191;28;20471;-60
2023/12/01 08:51:19;;;;;;;23.30;11.93;;;;;;;;;;5050658;28;20745;-61
2023/12/01 08:53:44;;;;;;;23.05;11.93;;;;;;;;;;5055173;28;20806;-60
2023/12/01 08:56:10;;;;;;;25.83;13.13;;;;;;;;;;5071526;28;20395;-61
2023/12/01 08:58:35;;;;;;;24.98;12.48;;;;;;;;;;5071261;28;20453;-60
2023/12/01 09:01:02;;;;;;;24.30;12.23;;;;;;;;;;5063547;28;20406;-62
2023/12/01 09:03:28;;;;;;;23.90;12.00;;;;;;;;;;5051843;28;20463;-61
2023/12/01 09:05:53;;;;;;;25.00;12.87;;;;;;;;;;5051419;28;20955;-61
2023/12/01 09:08:18;;;;;;;27.17;13.07;;;;;;;;;;5049039;28;20416;-60
2023/12/01 09:10:43;;;;;;;29.40;14.17;;;;;;;;;;5049068;28;20748;-61
2023/12/01 09:13:09;;;;;;;54.10;23.03;;;;;;;;;;5051311;28;20481;-61
2023/12/01 09:15:34;;;;;;;24.17;11.77;;;;;;;;;;5051992;28;20408;-61
2023/12/01 09:17:59;;;;;;;38.65;17.17;;;;;;;;;;5050987;28;20406;-61
2023/12/01 09:20:25;;;;;;;57.03;24.03;;;;;;;;;;5051384;28;20825;-61
2023/12/01 09:22:50;;;;;;;35.87;16.77;;;;;;;;;;5051203;28;20410;-61
2023/12/01 09:25:15;;;;;;;25.47;13.63;;;;;;;;;;5049908;28;20406;-60
2023/12/01 09:27:42;;;;;;;23.40;12.10;;;;;;;;;;5051642;28;20393;-60
2023/12/01 09:30:10;;;;;;;21.65;11.02;;;;;;;;;;5051137;28;20491;-61
2023/12/01 09:32:35;;;;;;;26.00;12.60;;;;;;;;;;5050165;28;20429;-60
2023/12/01 09:35:01;;;;;;;24.57;11.87;;;;;;;;;;5048602;28;20983;-61
2023/12/01 09:37:26;;;;;;;22.17;11.60;;;;;;;;;;5050817;28;20904;-61
2023/12/01 09:39:51;;;;;;;23.63;12.30;;;;;;;;;;5050446;28;20393;-60
2023/12/01 09:42:16;;;;;;;24.70;12.10;;;;;;;;;;5047808;28;20405;-61
2023/12/01 09:44:42;;;;;;;25.73;14.07;;;;;;;;;;5032177;28;21006;-61
2023/12/01 09:47:10;;;;;;;29.15;15.02;;;;;;;;;;5047490;28;20401;-60
2023/12/01 09:49:35;;;;;;;28.27;14.48;;;;;;;;;;5033338;28;20734;-61
2023/12/01 09:52:02;;;;;;;25.17;12.33;;;;;;;;;;5032861;28;20443;-62
2023/12/01 09:54:27;;;;;;;25.03;12.67;;;;;;;;;;5050045;28;20478;-61
2023/12/01 09:56:53;;;;;;;25.27;13.07;;;;;;;;;;5050769;28;20452;-63
2023/12/01 09:59:18;;;;;;;29.53;14.73;;;;;;;;;;5050587;28;20390;-62
2023/12/01 10:01:44;;;;;;;25.73;13.10;;;;;;;;;;5028913;28;20745;-61
2023/12/01 10:04:10;;;;;;;27.58;13.45;;;;;;;;;;5050634;28;20393;-61
2023/12/01 10:06:36;;;;;;;24.57;12.63;;;;;;;;;;5050993;28;20413;-61
2023/12/01 10:09:02;;;;;;;27.95;13.20;;;;;;;;;;5046028;28;20405;-61
2023/12/01 10:11:28;;;;;;;24.38;12.50;;;;;;;;;;5048010;28;20469;-61
2023/12/01 10:13:53;;;;;;;26.10;13.87;;;;;;;;;;5044651;28;20484;-61
2023/12/01 10:16:19;;;;;;;25.70;13.03;;;;;;;;;;5047212;28;20405;-61
2023/12/01 10:18:57;;;;;;;25.73;12.73;;;;;;;;;;5047976;28;20760;-61
2023/12/01 10:21:31;;;;;;;26.52;13.77;;;;;;;;;;5045627;28;20390;-61
2023/12/01 10:23:56;;;;;;;27.85;13.75;;;;;;;;;;5028356;28;20536;-61
2023/12/01 10:26:23;;;;;;;25.43;13.47;;;;;;;;;;5044391;28;20531;-61
2023/12/01 10:28:48;;;;;;;26.95;13.90;;;;;;;;;;5029332;28;20405;-61
2023/12/01 10:31:14;;;;;;;25.93;13.57;;;;;;;;;;5038761;28;20418;-61
2023/12/01 10:33:40;;;;;;;25.45;13.40;;;;;;;;;;5026568;28;20940;-61
2023/12/01 10:36:06;;;;;;;25.37;13.63;;;;;;;;;;5042683;28;20557;-61
2023/12/01 10:38:33;;;;;;;26.17;13.05;;;;;;;;;;5036474;28;20455;-61
2023/12/01 10:40:58;;;;;;;26.98;13.70;;;;;;;;;;5040923;28;20539;-60
2023/12/01 10:43:24;;;;;;;28.47;13.93;;;;;;;;;;5042775;28;20478;-60
2023/12/01 10:45:49;;;;;;;26.98;13.88;;;;;;;;;;5042552;28;20890;-62
2023/12/01 10:48:16;;;;;;;24.15;12.68;;;;;;;;;;5039805;28;21069;-63
2023/12/01 10:50:42;;;;;;;26.02;13.63;;;;;;;;;;5043171;28;20401;-66
2023/12/01 10:53:08;;;;;;;27.15;14.48;;;;;;;;;;5039494;28;20476;-65
2023/12/01 10:55:33;;;;;;;27.20;14.43;;;;;;;;;;5034705;28;20713;-64
2023/12/01 10:57:59;;;;;;;30.97;16.73;;;;;;;;;;5037669;28;20405;-64
2023/12/01 11:00:30;;;;;;;30.30;18.20;;;;;;;;;;5039480;28;20403;-64
2023/12/01 11:02:58;;;;;;;26.73;14.02;;;;;;;;;;5039842;28;20422;-64
2023/12/01 11:05:23;;;;;;;25.67;14.30;;;;;;;;;;5015292;28;20386;-64
2023/12/01 11:07:53;;;;;;;26.90;14.73;;;;;;;;;;5043552;28;20418;-64
2023/12/01 11:10:43;;;;;;;26.67;14.90;;;;;;;;;;5016840;28;20438;-64
2023/12/01 11:13:18;;;;;;;25.63;15.00;;;;;;;;;;5021482;28;20425;-64
2023/12/01 11:15:43;;;;;;;25.35;14.68;;;;;;;;;;5024602;28;20409;-64
2023/12/01 11:18:10;;;;;;;27.03;14.80;;;;;;;;;;5037796;28;20406;-64
2023/12/01 11:20:37;;;;;;;27.00;15.05;;;;;;;;;;5041376;28;20888;-64
2023/12/01 11:23:04;;;;;;;26.02;14.57;;;;;;;;;;5019828;28;20943;-64
2023/12/01 11:25:40;;;;;;;27.20;14.93;;;;;;;;;;5041964;28;20399;-64
2023/12/01 11:28:28;;;;;;;26.42;14.32;;;;;;;;;;5043048;28;20413;-64
2023/12/01 11:31:03;;;;;;;25.23;13.60;;;;;;;;;;5040211;28;20397;-64
2023/12/01 11:33:31;;;;;;;25.47;14.20;;;;;;;;;;5056181;28;20391;-66
2023/12/01 11:36:17;;;;;;;26.48;14.15;;;;;;;;;;5062933;28;20633;-67
2023/12/01 11:39:08;;;;;;;26.88;14.07;;;;;;;;;;5062103;28;20398;-67
2023/12/01 11:41:33;;;;;;;26.98;14.45;;;;;;;;;;5058656;28;20403;-67
2023/12/01 11:44:07;;;;;;;24.97;13.73;;;;;;;;;;5058966;28;20418;-66
2023/12/01 11:46:32;;;;;;;24.33;12.98;;;;;;;;;;5054811;28;20495;-67
2023/12/01 11:48:58;;;;;;;26.73;13.50;;;;;;;;;;5052226;28;21055;-67
2023/12/01 11:51:23;;;;;;;26.73;13.80;;;;;;;;;;5058830;28;20400;-67
2023/12/01 11:53:56;;;;;;;24.47;12.77;;;;;;;;;;5061186;28;20413;-67
2023/12/01 11:56:22;;;;;;;25.40;13.07;;;;;;;;;;5063581;28;20404;-67
2023/12/01 11:58:47;;;;;;;24.75;13.95;;;;;;;;;;5037059;28;20401;-67
2023/12/01 12:01:13;;;;;;;24.83;13.27;;;;;;;;;;5052047;28;20409;-67
2023/12/01 12:03:38;;;;;;;23.50;13.50;;;;;;;;;;5053148;28;20398;-67
2023/12/01 12:06:07;;;;;;;23.47;13.53;;;;;;;;;;5052635;28;20420;-67
2023/12/01 12:08:32;;;;;;;24.80;13.07;;;;;;;;;;5052455;28;20591;-67
2023/12/01 12:10:57;;;;;;;22.63;12.70;;;;;;;;;;5031412;28;21354;-67
2023/12/01 12:13:22;;;;;;;24.97;14.07;;;;;;;;;;5032509;28;20379;-67
2023/12/01 12:15:48;;;;;;;25.83;14.20;;;;;;;;;;5045879;28;20393;-67
2023/12/01 12:18:15;;;;;;;26.77;14.00;;;;;;;;;;5052323;28;20432;-67
2023/12/01 12:20:40;;;;;;;24.15;13.68;;;;;;;;;;5052068;28;20438;-66
2023/12/01 12:23:05;;;;;;;24.57;13.50;;;;;;;;;;5052298;28;20860;-66
2023/12/01 12:25:35;;;;;;;27.50;14.70;;;;;;;;;;5052369;28;20405;-67
2023/12/01 12:28:08;;;;;;;24.90;13.55;;;;;;;;;;5051447;28;20425;-66
2023/12/01 12:30:33;;;;;;;24.77;14.38;;;;;;;;;;5052585;28;20408;-67
2023/12/01 12:32:59;;;;;;;25.33;13.60;;;;;;;;;;5048869;28;21282;-67
2023/12/01 12:35:24;;;;;;;25.48;14.52;;;;;;;;;;5030777;28;20403;-68
2023/12/01 12:37:49;;;;;;;24.17;13.83;;;;;;;;;;5032506;28;20421;-67
2023/12/01 12:40:14;;;;;;;25.90;13.67;;;;;;;;;;5030713;28;20406;-68
2023/12/01 12:42:41;;;;;;;24.10;13.83;;;;;;;;;;5031617;28;20417;-68
2023/12/01 12:45:06;;;;;;;27.10;14.68;;;;;;;;;;5048052;28;20405;-68
2023/12/01 12:47:32;;;;;;;25.03;14.00;;;;;;;;;;5051193;28;20445;-68
2023/12/01 12:49:57;;;;;;;23.73;13.60;;;;;;;;;;5051237;28;20405;-69
2023/12/01 12:52:22;;;;;;;22.63;13.57;;;;;;;;;;5051677;28;20393;-68
2023/12/01 12:54:48;;;;;;;24.40;14.60;;;;;;;;;;5051645;28;20892;-69
2023/12/01 12:57:15;;;;;;;22.48;13.05;;;;;;;;;;5050226;28;20402;-68
2023/12/01 12:59:40;;;;;;;23.50;13.02;;;;;;;;;;5051948;28;20512;-67
2023/12/01 13:02:05;;;;;;;24.07;13.33;;;;;;;;;;5048065;28;20988;-68
2023/12/01 13:04:31;;;;;;;22.83;12.50;;;;;;;;;;5032843;28;20442;-67
2023/12/01 13:06:56;;;;;;;23.38;13.10;;;;;;;;;;5036181;28;20419;-66
2023/12/01 13:09:22;;;;;;;33.80;19.07;;;;;;;;;;5029917;28;20435;-66
2023/12/01 13:11:47;;;;;;;21.77;12.35;;;;;;;;;;5049446;28;20430;-66
2023/12/01 13:14:13;;;;;;;23.20;13.17;;;;;;;;;;5046703;28;20426;-66
2023/12/01 13:16:39;;;;;;;84.97;35.10;;;;;;;;;;5049348;28;20414;-66
2023/12/01 13:19:06;;;;;;;22.38;13.23;;;;;;;;;;5047051;28;20942;-66
2023/12/01 13:21:35;;;;;;;23.77;13.70;;;;;;;;;;5046014;28;20413;-66
2023/12/01 13:24:00;;;;;;;22.88;12.95;;;;;;;;;;5047538;28;20789;-66
2023/12/01 13:26:25;;;;;;;35.37;23.43;;;;;;;;;;5047994;28;20443;-66
2023/12/01 13:28:51;;;;;;;24.10;13.50;;;;;;;;;;5046202;28;20405;-66
2023/12/01 13:31:16;;;;;;;23.63;14.13;;;;;;;;;;5044208;28;20405;-66
2023/12/01 13:33:41;;;;;;;22.87;13.47;;;;;;;;;;5049093;28;20804;-66
2023/12/01 13:36:09;;;;;;;23.40;14.57;;;;;;;;;;5046018;28;20853;-66
2023/12/01 13:38:35;;;;;;;25.65;14.50;;;;;;;;;;5046867;28;20412;-66
2023/12/01 13:41:00;;;;;;;38.97;22.63;;;;;;;;;;5048021;28;20413;-66
2023/12/01 13:43:25;;;;;;;31.23;22.60;;;;;;;;;;5046513;28;20881;-67
2023/12/01 13:45:51;;;;;;;29.90;20.63;;;;;;;;;;5046404;28;20420;-71
2023/12/01 13:48:16;;;;;;;24.17;14.38;;;;;;;;;;5048062;28;20485;-67
2023/12/01 13:50:41;;;;;;;23.30;12.93;;;;;;;;;;5047938;28;20401;-67
2023/12/01 13:53:07;;;;;;;23.10;12.77;;;;;;;;;;5042744;28;20493;-66
2023/12/01 13:55:32;;;;;;;24.23;14.98;;;;;;;;;;5048071;28;20803;-63
2023/12/01 13:57:57;;;;;;;25.10;14.77;;;;;;;;;;5047056;28;20402;-64
2023/12/01 14:00:23;;;;;;;25.60;14.90;;;;;;;;;;5044049;28;20504;-67
2023/12/01 14:02:49;;;;;;;29.57;18.37;;;;;;;;;;5044576;28;20750;-63
2023/12/01 14:05:16;;;;;;;25.13;15.60;;;;;;;;;;5047470;28;20425;-63
2023/12/01 14:07:42;;;;;;;26.02;14.52;;;;;;;;;;5045426;28;20386;-63
2023/12/01 14:10:11;;;;;;;24.88;14.45;;;;;;;;;;5045845;28;20824;-63